Time;durP1;ratioP1;P1;durP2;ratioP2;P2;SDS_P1;SDS_P2;PMS_P1;PMS_P2;Temp;Humidity;BMP_temperature;BMP_pressure;BME280_temperature;BME280_humidity;BME280_pressure;Samples;Min_cycle;Max_cycle;Signal;HPM_P1;HPM_P2
2022/03/17 00:00:52;;;;;;;19.15;10.82;;;11.00;99.90;;;;;;5041789;28;20029;-75
2022/03/17 00:03:18;;;;;;;21.20;11.67;;;11.00;99.90;;;;;;5032631;28;20406;-75
2022/03/17 00:05:43;;;;;;;23.70;11.67;;;11.00;99.90;;;;;;5041217;28;20025;-74
2022/03/17 00:08:09;;;;;;;23.13;11.10;;;11.00;99.90;;;;;;5042114;28;20023;-74
2022/03/17 00:10:35;;;;;;;27.17;11.53;;;11.00;99.90;;;;;;5041163;28;20040;-80
2022/03/17 00:13:01;;;;;;;23.23;11.23;;;11.00;99.90;;;;;;5041513;28;20161;-74
2022/03/17 00:15:26;;;;;;;20.50;11.47;;;11.00;99.90;;;;;;5041191;28;20030;-75
2022/03/17 00:17:52;;;;;;;23.07;10.70;;;11.00;99.90;;;;;;5041370;28;20025;-75
2022/03/17 00:20:18;;;;;;;17.53;10.50;;;11.00;99.90;;;;;;5041286;28;20041;-85
2022/03/17 00:22:44;;;;;;;20.67;11.27;;;11.00;99.90;;;;;;5023744;28;20049;-74
2022/03/17 00:25:11;;;;;;;19.30;10.45;;;11.00;99.90;;;;;;5023790;28;20029;-75
2022/03/17 00:27:37;;;;;;;21.27;11.45;;;10.90;99.90;;;;;;5023956;28;20414;-75
2022/03/17 00:30:05;;;;;;;23.17;11.40;;;10.90;99.90;;;;;;5018999;28;20144;-75
2022/03/17 00:32:31;;;;;;;25.17;11.60;;;10.90;99.90;;;;;;5019697;28;20302;-73
2022/03/17 00:37:41;;;;;;;24.83;12.50;;;10.80;99.90;;;;;;5037733;28;20064;-74
2022/03/17 00:40:07;;;;;;;24.47;11.30;;;10.80;99.90;;;;;;5019585;28;20053;-74
2022/03/17 00:42:33;;;;;;;19.45;11.40;;;10.80;99.90;;;;;;5020078;28;20060;-74
2022/03/17 00:44:59;;;;;;;20.67;11.13;;;10.80;99.90;;;;;;5039986;28;20041;-74
2022/03/17 00:47:24;;;;;;;22.70;11.70;;;10.80;99.90;;;;;;5036328;28;20033;-74
2022/03/17 00:49:50;;;;;;;21.80;12.27;;;10.80;99.90;;;;;;5015570;28;20025;-74
2022/03/17 00:52:20;;;;;;;20.63;11.87;;;10.70;99.90;;;;;;5016059;28;20112;-74
2022/03/17 00:54:46;;;;;;;22.15;13.10;;;10.70;99.90;;;;;;5040540;28;20125;-74
2022/03/17 00:57:12;;;;;;;23.15;11.70;;;10.70;99.90;;;;;;5040577;28;20070;-74
2022/03/17 00:59:40;;;;;;;23.10;12.43;;;10.70;99.90;;;;;;5041448;28;20136;-75
2022/03/17 01:02:06;;;;;;;23.02;12.07;;;10.60;99.90;;;;;;5040654;28;20022;-74
2022/03/17 01:04:34;;;;;;;27.00;12.52;;;10.60;99.90;;;;;;5036901;28;20032;-74
2022/03/17 01:07:00;;;;;;;22.92;11.93;;;10.60;99.90;;;;;;5037895;28;20037;-75
2022/03/17 01:09:28;;;;;;;23.10;12.57;;;10.60;99.90;;;;;;5019889;28;20032;-74
2022/03/17 01:11:55;;;;;;;20.02;11.43;;;10.60;99.90;;;;;;5037663;28;20270;-74
2022/03/17 01:14:20;;;;;;;;;;;10.60;99.90;;;;;;5038332;28;20095;-75
2022/03/17 01:16:46;;;;;;;22.85;11.77;;;10.60;99.90;;;;;;5037695;28;19940;-74
2022/03/17 01:19:12;;;;;;;21.37;11.33;;;10.60;99.90;;;;;;5020098;28;20032;-82
2022/03/17 01:21:38;;;;;;;24.57;11.57;;;10.60;99.90;;;;;;5037440;28;20037;-74
2022/03/17 01:24:04;;;;;;;22.33;11.70;;;10.60;99.90;;;;;;5037399;28;20446;-74
2022/03/17 01:26:30;;;;;;;20.83;12.50;;;10.70;99.90;;;;;;5018539;28;20156;-82
2022/03/17 01:28:56;;;;;;;27.23;13.07;;;10.70;99.90;;;;;;5020054;28;20120;-74
2022/03/17 01:31:23;;;;;;;28.10;12.13;;;10.70;99.90;;;;;;5037321;28;20071;-75
2022/03/17 01:33:50;;;;;;;26.77;11.95;;;10.80;99.90;;;;;;5037165;28;20033;-75
2022/03/17 01:36:15;;;;;;;25.75;13.43;;;10.80;99.90;;;;;;5019415;28;20030;-75
2022/03/17 01:38:41;;;;;;;27.80;12.80;;;10.80;99.90;;;;;;5036971;28;20091;-74
2022/03/17 01:41:07;;;;;;;22.80;12.77;;;10.80;99.90;;;;;;5036666;28;20025;-75
2022/03/17 01:43:33;;;;;;;23.50;12.60;;;10.80;99.90;;;;;;5036784;28;20040;-83
2022/03/17 01:45:58;;;;;;;27.30;13.53;;;10.80;99.90;;;;;;5037014;28;20029;-74
2022/03/17 01:48:24;;;;;;;35.43;12.53;;;10.80;99.90;;;;;;5036726;28;20041;-75
2022/03/17 01:50:51;;;;;;;25.47;13.33;;;10.80;99.90;;;;;;5037019;28;20044;-75
2022/03/17 01:53:18;;;;;;;21.27;12.02;;;10.70;99.90;;;;;;5036695;28;20022;-76
2022/03/17 01:55:43;;;;;;;26.13;13.85;;;10.70;99.90;;;;;;5018968;28;20036;-75
2022/03/17 01:58:10;;;;;;;24.83;13.43;;;10.70;99.90;;;;;;5037397;28;20029;-75
2022/03/17 02:00:37;;;;;;;27.33;13.45;;;10.70;99.90;;;;;;5036641;28;20428;-75
2022/03/17 02:03:04;;;;;;;32.58;14.80;;;10.70;99.90;;;;;;5019326;28;20061;-74
2022/03/17 02:05:29;;;;;;;31.85;16.15;;;10.70;99.90;;;;;;5036366;28;20104;-75
2022/03/17 02:07:55;;;;;;;31.53;15.13;;;10.70;99.90;;;;;;5019869;28;20160;-75
2022/03/17 02:10:22;;;;;;;32.73;15.83;;;10.60;99.90;;;;;;5018977;28;20427;-86
2022/03/17 02:15:33;;;;;;;31.50;15.73;;;10.60;99.90;;;;;;5036241;28;20091;-74
2022/03/17 02:18:02;;;;;;;27.45;15.73;;;10.50;99.90;;;;;;5036665;28;20055;-74
2022/03/17 02:20:28;;;;;;;39.58;18.60;;;10.50;99.90;;;;;;5018609;28;20025;-74
2022/03/17 02:25:33;;;;;;;36.15;15.73;;;10.40;99.90;;;;;;5018917;28;20330;-74
2022/03/17 02:25:50;;;;;;;36.17;17.15;;;10.40;99.90;;;;;;5021381;28;20049;-74
2022/03/17 02:28:16;;;;;;;28.63;15.90;;;10.30;99.90;;;;;;5035806;28;20021;-75
2022/03/17 02:30:42;;;;;;;41.10;17.85;;;10.30;99.90;;;;;;5035756;28;20025;-82
2022/03/17 02:33:11;;;;;;;36.60;18.13;;;10.30;99.90;;;;;;5019840;28;20029;-74
2022/03/17 02:35:41;;;;;;;37.85;17.05;;;10.20;99.90;;;;;;5036046;28;20324;-75
2022/03/17 02:38:08;;;;;;;36.15;17.80;;;10.20;99.90;;;;;;5018471;28;20068;-85
2022/03/17 02:40:36;;;;;;;40.28;18.77;;;10.10;99.90;;;;;;5035999;28;20426;-74
2022/03/17 02:43:04;;;;;;;41.08;17.92;;;10.10;99.90;;;;;;5017994;28;20335;-75
2022/03/17 02:45:31;;;;;;;30.55;16.83;;;10.10;99.90;;;;;;5033039;28;20105;-75
2022/03/17 02:47:57;;;;;;;24.50;12.18;;;10.10;99.90;;;;;;5035776;28;20021;-74
2022/03/17 02:50:23;;;;;;;17.10;6.67;;;10.00;99.90;;;;;;5017976;28;20035;-74
2022/03/17 02:52:48;;;;;;;15.37;6.97;;;9.90;99.90;;;;;;5036128;28;20026;-74
2022/03/17 02:55:15;;;;;;;9.13;5.23;;;9.70;99.90;;;;;;5029333;28;20266;-75
2022/03/17 02:57:42;;;;;;;8.10;4.80;;;9.50;99.90;;;;;;5035160;28;20025;-75
2022/03/17 03:00:10;;;;;;;7.75;3.58;;;9.40;99.90;;;;;;5035335;28;20030;-75
2022/03/17 03:02:36;;;;;;;5.82;3.63;;;9.10;99.90;;;;;;5016920;28;20112;-74
2022/03/17 03:05:04;;;;;;;9.05;3.97;;;9.00;99.90;;;;;;5033879;28;20317;-75
2022/03/17 03:07:29;;;;;;;8.88;4.28;;;9.00;99.90;;;;;;5015738;28;20033;-75
2022/03/17 03:09:55;;;;;;;10.10;3.45;;;8.90;99.90;;;;;;5008449;28;20088;-82
2022/03/17 03:12:21;;;;;;;7.97;3.90;;;8.80;99.90;;;;;;5034012;28;20052;-75
2022/03/17 03:14:48;;;;;;;6.33;3.07;;;8.80;99.90;;;;;;5030675;28;20416;-75
2022/03/17 03:17:14;;;;;;;5.68;3.05;;;8.70;99.90;;;;;;5029827;28;20018;-75
2022/03/17 03:19:40;;;;;;;7.23;2.97;;;8.60;99.90;;;;;;5031173;28;20041;-74
2022/03/17 03:22:06;;;;;;;6.00;2.87;;;8.50;99.90;;;;;;5017721;28;20266;-75
2022/03/17 03:24:33;;;;;;;5.67;3.50;;;8.50;99.90;;;;;;5023416;28;20038;-74
2022/03/17 03:26:59;;;;;;;4.35;2.70;;;8.40;99.90;;;;;;5026205;28;20021;-82
2022/03/17 03:29:28;;;;;;;4.88;3.20;;;8.30;99.90;;;;;;5017567;28;20025;-75
2022/03/17 03:31:56;;;;;;;4.63;2.80;;;8.30;99.90;;;;;;5034848;28;20083;-75
2022/03/17 03:34:22;;;;;;;9.18;2.92;;;8.30;99.90;;;;;;5017314;28;20018;-75
2022/03/17 03:39:33;;;;;;;7.78;2.90;;;8.10;99.90;;;;;;5034074;28;20041;-75
2022/03/17 03:41:59;;;;;;;8.53;3.40;;;8.20;99.90;;;;;;5034792;28;20029;-84
2022/03/17 03:44:25;;;;;;;7.95;4.07;;;8.10;99.90;;;;;;5017250;28;20029;-75
2022/03/17 03:46:51;;;;;;;9.33;3.97;;;8.10;99.90;;;;;;5017179;28;20132;-75
2022/03/17 03:49:17;;;;;;;18.17;5.77;;;8.10;99.90;;;;;;5018197;28;20037;-75
2022/03/17 03:51:43;;;;;;;10.93;6.03;;;8.10;99.90;;;;;;5014672;28;20034;-75
2022/03/17 03:54:18;;;;;;;8.20;5.37;;;8.00;99.90;;;;;;5028735;28;20033;-75
2022/03/17 03:56:55;;;;;;;18.52;6.18;;;8.10;99.90;;;;;;5032705;28;20056;-74
2022/03/17 03:59:22;;;;;;;10.68;5.30;;;8.00;99.90;;;;;;4997781;28;20301;-75
2022/03/17 04:01:53;;;;;;;15.07;7.03;;;8.00;99.90;;;;;;5027101;28;20064;-74
2022/03/17 04:04:20;;;;;;;17.65;6.57;;;8.00;99.90;;;;;;5021625;28;20030;-75
2022/03/17 04:06:46;;;;;;;20.40;7.25;;;7.90;99.90;;;;;;5037426;28;20052;-74
2022/03/17 04:09:17;;;;;;;14.27;7.18;;;8.00;99.90;;;;;;5037567;28;20025;-81
2022/03/17 04:11:44;;;;;;;14.55;6.75;;;8.00;99.90;;;;;;5034546;28;20034;-74
2022/03/17 04:14:11;;;;;;;;;;;7.90;99.90;;;;;;5032109;28;20432;-74
2022/03/17 04:16:37;;;;;;;10.75;4.90;;;7.90;99.90;;;;;;5016615;28;19909;-75
2022/03/17 04:19:04;;;;;;;13.32;5.75;;;7.90;99.90;;;;;;5035044;28;20045;-75
2022/03/17 04:21:30;;;;;;;10.73;3.80;;;7.90;99.90;;;;;;5015440;28;20357;-84
2022/03/17 04:23:56;;;;;;;10.60;3.20;;;7.80;99.90;;;;;;5034504;28;20103;-74
2022/03/17 04:26:22;;;;;;;11.57;2.97;;;7.80;99.90;;;;;;5034972;28;20109;-75
2022/03/17 04:28:48;;;;;;;10.82;3.08;;;7.80;99.90;;;;;;5017521;28;20379;-74
2022/03/17 04:31:14;;;;;;;10.67;3.10;;;7.80;99.90;;;;;;5017418;28;20018;-75
2022/03/17 04:33:40;;;;;;;7.40;2.53;;;7.80;99.90;;;;;;5017315;28;20336;-74
2022/03/17 04:36:07;;;;;;;8.60;2.77;;;7.80;99.90;;;;;;5034820;28;20033;-75
2022/03/17 04:38:33;;;;;;;14.98;2.83;;;7.80;99.90;;;;;;5036971;28;20033;-81
2022/03/17 04:40:59;;;;;;;3.87;2.20;;;7.80;99.90;;;;;;5038688;28;20104;-75
2022/03/17 04:43:25;;;;;;;16.53;2.60;;;7.70;99.90;;;;;;5021063;28;20160;-75
2022/03/17 04:45:50;;;;;;;11.40;2.70;;;7.70;99.90;;;;;;5037305;28;20044;-76
2022/03/17 04:48:16;;;;;;;16.60;3.17;;;7.70;99.90;;;;;;5038246;28;20022;-75
2022/03/17 04:50:42;;;;;;;14.05;2.20;;;7.70;99.90;;;;;;5035786;28;20022;-75
2022/03/17 04:53:27;;;;;;;7.87;2.13;;;7.70;99.90;;;;;;5017398;28;20036;-75
2022/03/17 04:55:57;;;;;;;10.13;2.53;;;7.70;99.90;;;;;;5036736;28;20022;-75
2022/03/17 04:58:23;;;;;;;7.85;1.88;;;7.70;99.90;;;;;;5020667;28;20036;-75
2022/03/17 05:00:51;;;;;;;7.65;2.08;;;7.70;99.90;;;;;;5038131;28;20316;-75
2022/03/17 05:03:16;;;;;;;14.93;2.08;;;7.60;99.90;;;;;;5020686;28;20025;-75
2022/03/17 05:05:42;;;;;;;9.20;1.85;;;7.70;99.90;;;;;;5038059;28;20108;-75
2022/03/17 05:08:08;;;;;;;9.07;2.70;;;7.70;99.90;;;;;;5038395;28;20394;-75
2022/03/17 05:10:37;;;;;;;18.70;2.35;;;7.60;99.90;;;;;;5020619;28;20429;-75
2022/03/17 05:13:04;;;;;;;11.45;1.85;;;7.60;99.90;;;;;;5037955;28;20030;-75
2022/03/17 05:15:30;;;;;;;;;;;7.60;99.90;;;;;;5038582;28;20282;-75
2022/03/17 05:17:55;;;;;;;11.43;2.07;;;7.60;99.90;;;;;;5037860;28;19959;-75
2022/03/17 05:20:22;;;;;;;9.50;1.80;;;7.60;99.90;;;;;;5038375;28;20108;-75
2022/03/17 05:22:48;;;;;;;15.40;2.63;;;7.60;99.90;;;;;;5037911;28;20049;-75
2022/03/17 05:25:13;;;;;;;11.50;1.90;;;7.60;99.90;;;;;;5037857;28;20710;-76
2022/03/17 05:27:41;;;;;;;3.50;1.30;;;7.50;99.90;;;;;;5037549;28;20351;-76
2022/03/17 05:30:14;;;;;;;7.63;1.92;;;7.50;99.90;;;;;;5037700;28;20106;-75
2022/03/17 05:32:40;;;;;;;14.52;2.70;;;7.50;99.90;;;;;;5037746;28;20036;-75
2022/03/17 05:35:07;;;;;;;5.78;1.35;;;7.50;99.90;;;;;;5037935;28;20053;-75
2022/03/17 05:37:34;;;;;;;;;;;7.50;99.90;;;;;;5020376;28;20079;-75
2022/03/17 05:40:09;;;;;;;6.60;1.55;;;7.50;99.90;;;;;;5037586;28;19963;-75
2022/03/17 05:42:35;;;;;;;7.55;1.58;;;7.50;99.90;;;;;;5037490;28;20045;-75
2022/03/17 05:45:02;;;;;;;8.23;2.10;;;7.50;99.90;;;;;;5019921;28;20036;-75
2022/03/17 05:47:43;;;;;;;11.32;2.70;;;7.50;99.90;;;;;;5020056;28;20038;-75
2022/03/17 05:50:11;;;;;;;11.93;1.60;;;7.50;99.90;;;;;;5036554;28;20067;-81
2022/03/17 05:52:38;;;;;;;15.68;2.35;;;7.40;99.90;;;;;;5037436;28;20420;-74
2022/03/17 05:55:06;;;;;;;15.73;1.42;;;7.40;99.90;;;;;;5037277;28;20631;-75
2022/03/17 05:57:37;;;;;;;7.18;1.42;;;7.40;99.90;;;;;;5037371;28;20021;-75
2022/03/17 06:00:04;;;;;;;15.05;2.35;;;7.40;99.90;;;;;;5037238;28;20028;-75
2022/03/17 06:02:31;;;;;;;4.43;1.02;;;7.40;99.90;;;;;;5037380;28;20048;-75
2022/03/17 06:04:57;;;;;;;6.13;1.55;;;7.40;99.90;;;;;;5019314;28;20037;-75
2022/03/17 06:07:22;;;;;;;16.47;1.87;;;7.30;99.90;;;;;;5036937;28;20029;-75
2022/03/17 06:09:48;;;;;;;11.37;1.73;;;7.30;99.90;;;;;;5036864;28;20018;-75
2022/03/17 06:12:15;;;;;;;17.33;2.37;;;7.30;99.90;;;;;;5036972;28;20056;-75
2022/03/17 06:14:45;;;;;;;20.98;2.15;;;7.30;99.90;;;;;;5018752;28;20048;-81
2022/03/17 06:17:12;;;;;;;14.13;1.35;;;7.30;99.90;;;;;;5036726;28;20428;-75
2022/03/17 06:19:38;;;;;;;8.30;1.60;;;7.30;99.90;;;;;;5036633;28;20104;-75
2022/03/17 06:22:04;;;;;;;5.32;1.55;;;7.30;99.90;;;;;;5036801;28;20053;-75
2022/03/17 06:24:30;;;;;;;13.73;1.70;;;7.30;99.90;;;;;;5018900;28;20115;-76
2022/03/17 06:26:55;;;;;;;15.53;2.03;;;7.30;99.90;;;;;;5036450;28;20021;-75
2022/03/17 06:29:21;;;;;;;14.13;1.87;;;7.30;99.90;;;;;;5018907;28;20076;-75
2022/03/17 06:31:47;;;;;;;9.53;1.03;;;7.30;99.90;;;;;;5018922;28;20036;-74
2022/03/17 06:34:13;;;;;;;6.57;2.27;;;7.30;99.90;;;;;;5018983;28;20056;-75
2022/03/17 06:36:38;;;;;;;11.43;1.97;;;7.30;99.90;;;;;;5036505;28;20116;-75
2022/03/17 06:39:04;;;;;;;12.43;2.20;;;7.30;99.90;;;;;;5036044;28;20040;-74
2022/03/17 06:41:29;;;;;;;20.63;1.87;;;7.30;99.90;;;;;;5036197;28;20311;-74
2022/03/17 06:43:55;;;;;;;9.00;1.10;;;7.20;99.90;;;;;;5036473;28;20105;-75
2022/03/17 06:46:21;;;;;;;4.87;1.43;;;7.20;99.90;;;;;;5035946;28;20359;-75
2022/03/17 06:48:47;;;;;;;8.67;1.33;;;7.20;99.90;;;;;;5035964;28;20021;-75
2022/03/17 06:51:13;;;;;;;2.37;0.87;;;7.20;99.90;;;;;;5036003;28;20049;-75
2022/03/17 06:53:39;;;;;;;6.65;1.60;;;7.30;99.90;;;;;;5035976;28;20021;-75
2022/03/17 06:56:04;;;;;;;0.67;0.50;;;7.30;99.90;;;;;;5036399;28;20033;-75
2022/03/17 06:58:31;;;;;;;5.75;1.00;;;7.30;99.90;;;;;;5035902;28;20171;-82
2022/03/17 07:00:57;;;;;;;3.75;0.57;;;7.30;99.90;;;;;;5018173;28;20375;-75
2022/03/17 07:03:23;;;;;;;5.30;1.83;;;7.30;99.90;;;;;;5035646;28;20053;-76
2022/03/17 07:05:48;;;;;;;4.23;1.23;;;7.30;99.90;;;;;;5018201;28;20033;-75
2022/03/17 07:08:14;;;;;;;6.10;1.00;;;7.40;99.90;;;;;;5035990;28;20021;-75
2022/03/17 07:10:40;;;;;;;9.27;1.53;;;7.40;99.90;;;;;;5035734;28;20025;-75
2022/03/17 07:13:05;;;;;;;7.00;1.00;;;7.40;99.90;;;;;;5035609;28;20162;-75
2022/03/17 07:15:31;;;;;;;13.57;1.80;;;7.40;99.90;;;;;;5035571;28;20100;-83
2022/03/17 07:17:57;;;;;;;7.60;1.83;;;7.40;99.90;;;;;;5018088;28;20033;-74
2022/03/17 07:20:23;;;;;;;7.53;1.58;;;7.40;99.90;;;;;;5035651;28;20021;-75
2022/03/17 07:22:50;;;;;;;11.00;1.30;;;7.30;99.90;;;;;;5017900;28;20057;-75
2022/03/17 07:25:21;;;;;;;;;;;7.40;99.90;;;;;;5035860;28;20029;-75
2022/03/17 07:27:48;;;;;;;20.35;1.50;;;7.40;99.90;;;;;;5035391;28;19912;-75
2022/03/17 07:30:18;;;;;;;;;;;7.40;99.90;;;;;;5018124;28;20021;-75
2022/03/17 07:32:45;;;;;;;6.70;1.23;;;7.40;99.90;;;;;;5035425;28;19920;-78
2022/03/17 07:35:12;;;;;;;13.70;1.60;;;7.40;99.90;;;;;;5035594;28;20021;-75
2022/03/17 07:37:39;;;;;;;5.38;1.20;;;7.40;99.90;;;;;;5035155;28;20037;-74
2022/03/17 07:40:05;;;;;;;7.13;1.02;;;7.40;99.90;;;;;;5017675;28;20128;-75
2022/03/17 07:42:31;;;;;;;13.98;2.00;;;7.50;99.90;;;;;;5001423;28;20133;-75
2022/03/17 07:44:56;;;;;;;9.63;1.20;;;7.60;99.90;;;;;;5017529;28;20116;-74
2022/03/17 07:47:22;;;;;;;6.30;1.37;;;7.60;99.90;;;;;;5035277;28;20030;-75
2022/03/17 07:49:50;;;;;;;8.25;1.17;;;7.60;99.90;;;;;;5035176;28;20025;-75
2022/03/17 07:52:15;;;;;;;12.05;1.85;;;7.70;99.90;;;;;;5001434;28;20029;-74
2022/03/17 07:54:41;;;;;;;15.05;2.03;;;7.70;99.90;;;;;;5017685;28;20021;-74
2022/03/17 07:57:08;;;;;;;12.97;1.97;;;7.80;99.90;;;;;;5035458;28;20406;-74
2022/03/17 07:59:34;;;;;;;12.90;1.77;;;7.90;99.90;;;;;;5034918;28;20026;-74
2022/03/17 08:02:00;;;;;;;21.13;2.40;;;7.90;99.90;;;;;;5035441;28;20049;-74
2022/03/17 08:04:25;;;;;;;11.48;2.13;;;7.80;99.90;;;;;;5017429;28;20072;-74
2022/03/17 08:06:53;;;;;;;6.90;1.60;;;7.80;99.90;;;;;;5035013;28;20022;-75
2022/03/17 08:09:20;;;;;;;5.72;2.13;;;7.70;99.90;;;;;;5034953;28;20096;-74
2022/03/17 08:11:49;;;;;;;;;;;7.60;99.90;;;;;;5035617;28;20025;-74
2022/03/17 08:14:18;;;;;;;5.15;1.33;;;7.60;99.90;;;;;;5020608;28;19915;-79
2022/03/17 08:16:44;;;;;;;11.02;1.73;;;7.50;99.90;;;;;;5038612;28;20302;-74
2022/03/17 08:19:10;;;;;;;7.13;1.33;;;7.50;99.90;;;;;;5038909;28;20140;-74
2022/03/17 08:21:37;;;;;;;14.18;2.13;;;7.50;99.90;;;;;;5038918;28;20108;-75
2022/03/17 08:24:03;;;;;;;6.13;1.08;;;7.40;99.90;;;;;;5021190;28;20048;-75
2022/03/17 08:26:28;;;;;;;9.67;1.17;;;7.30;99.90;;;;;;5021125;28;20037;-84
2022/03/17 08:28:54;;;;;;;8.67;1.97;;;7.30;99.90;;;;;;5038970;28;20316;-74
2022/03/17 08:31:20;;;;;;;7.43;0.87;;;7.40;99.90;;;;;;5021169;28;20061;-83
2022/03/17 08:33:45;;;;;;;7.70;0.80;;;7.60;99.90;;;;;;5038684;28;20030;-74
2022/03/17 08:36:11;;;;;;;4.33;1.33;;;7.80;99.90;;;;;;5038679;28;20021;-78
2022/03/17 08:38:37;;;;;;;3.85;0.73;;;7.90;99.90;;;;;;5037062;28;20076;-74
2022/03/17 08:41:02;;;;;;;6.23;1.43;;;7.90;99.90;;;;;;5038858;28;20029;-83
2022/03/17 08:43:28;;;;;;;13.07;1.57;;;8.00;99.90;;;;;;5038356;28;20028;-74
2022/03/17 08:51:26;;;;;;;15.32;1.40;;;8.30;99.90;;;;;;5038750;28;20117;-74
2022/03/17 08:53:52;;;;;;;7.27;1.77;;;8.40;99.90;;;;;;5020645;28;20075;-86
2022/03/17 08:56:17;;;;;;;6.50;1.43;;;8.40;99.90;;;;;;5020193;28;20033;-75
2022/03/17 08:58:43;;;;;;;4.13;1.83;;;8.50;99.90;;;;;;5038366;28;20034;-74
2022/03/17 09:01:10;;;;;;;5.00;1.43;;;8.60;99.90;;;;;;5038134;28;20703;-74
2022/03/17 09:03:36;;;;;;;2.42;0.93;;;8.50;99.90;;;;;;5020506;28;20428;-75
2022/03/17 09:06:02;;;;;;;11.45;1.02;;;8.70;99.90;;;;;;5020563;28;20030;-74
2022/03/17 09:08:28;;;;;;;3.57;1.30;;;8.90;99.90;;;;;;5037827;28;20029;-74
2022/03/17 09:10:57;;;;;;;11.47;1.63;;;9.30;99.90;;;;;;5020426;28;20025;-81
2022/03/17 09:13:28;;;;;;;7.55;1.20;;;9.70;99.90;;;;;;5038176;28;20025;-74
2022/03/17 09:15:55;;;;;;;3.40;0.98;;;9.90;99.90;;;;;;5037894;28;20021;-75
2022/03/17 09:18:21;;;;;;;8.55;1.15;;;9.90;99.90;;;;;;5038003;28;20028;-82
2022/03/17 09:20:48;;;;;;;10.13;1.48;;;10.10;99.90;;;;;;5020322;28;20112;-75
2022/03/17 09:23:13;;;;;;;8.15;1.20;;;9.60;99.90;;;;;;5037689;28;20049;-75
2022/03/17 09:25:40;;;;;;;9.87;1.60;;;10.20;99.90;;;;;;5036966;28;20030;-75
2022/03/17 09:28:06;;;;;;;4.38;0.90;;;9.90;99.90;;;;;;5037572;28;20057;-76
2022/03/17 09:30:32;;;;;;;11.52;2.25;;;10.40;99.90;;;;;;5037730;28;20030;-75
2022/03/17 09:33:03;;;;;;;3.63;0.90;;;9.90;99.90;;;;;;5037702;28;20404;-75
2022/03/17 09:35:29;;;;;;;4.13;1.20;;;9.80;99.90;;;;;;5037652;28;20032;-86
2022/03/17 09:37:54;;;;;;;4.55;0.90;;;10.40;99.90;;;;;;5037499;28;20077;-75
2022/03/17 09:40:20;;;;;;;4.53;1.60;;;11.20;99.90;;;;;;5037374;28;20040;-75
2022/03/17 09:42:46;;;;;;;10.67;1.60;;;10.50;99.90;;;;;;5037228;28;20064;-75
2022/03/17 09:45:12;;;;;;;10.33;1.47;;;10.00;99.90;;;;;;5037468;28;20053;-75
2022/03/17 09:47:44;;;;;;;5.85;1.45;;;9.70;99.90;;;;;;5037190;28;20060;-74
2022/03/17 09:50:13;;;;;;;6.75;1.10;;;10.10;99.90;;;;;;5037289;28;20037;-75
2022/03/17 09:52:41;;;;;;;10.80;1.30;;;10.30;99.90;;;;;;5037384;28;20030;-74
2022/03/17 09:55:12;;;;;;;4.25;1.60;;;10.20;99.90;;;;;;5021359;28;20029;-75
2022/03/17 09:57:40;;;;;;;7.47;1.17;;;10.80;99.90;;;;;;5034479;28;20029;-75
2022/03/17 10:00:09;;;;;;;3.25;1.40;;;11.30;99.90;;;;;;5033311;28;20033;-75
2022/03/17 10:02:35;;;;;;;4.35;1.33;;;11.30;99.90;;;;;;5017369;28;20022;-75
2022/03/17 10:05:02;;;;;;;6.10;1.73;;;11.40;99.90;;;;;;5017634;28;20032;-75
2022/03/17 10:07:27;;;;;;;;;;;11.50;99.90;;;;;;4999926;28;20384;-75
2022/03/17 10:09:53;;;;;;;14.32;1.98;;;10.90;99.90;;;;;;5017082;28;20008;-74
2022/03/17 10:12:20;;;;;;;8.87;1.30;;;10.80;99.90;;;;;;5015931;28;20030;-75
2022/03/17 10:14:49;;;;;;;4.72;1.38;;;10.70;99.90;;;;;;5017006;28;20045;-75
2022/03/17 10:17:33;;;;;;;3.80;0.90;;;10.50;99.90;;;;;;5002101;28;20037;-75
2022/03/17 10:20:18;;;;;;;9.60;1.23;;;10.80;99.90;;;;;;5028442;28;20036;-75
2022/03/17 10:22:51;;;;;;;4.28;1.48;;;11.50;99.90;;;;;;5036370;28;20076;-75
2022/03/17 10:25:19;;;;;;;6.63;1.50;;;11.80;99.90;;;;;;5036688;28;20025;-75
2022/03/17 10:27:49;;;;;;;5.75;1.75;;;12.20;99.90;;;;;;5036404;28;20320;-86
2022/03/17 10:30:22;;;;;;;2.70;0.98;;;12.10;99.90;;;;;;5036735;28;20021;-75
2022/03/17 10:33:00;;;;;;;1.35;0.80;;;11.60;99.90;;;;;;5036567;28;20032;-75
2022/03/17 10:35:33;;;;;;;4.72;1.08;;;11.00;99.90;;;;;;5028716;28;20022;-74
2022/03/17 10:38:09;;;;;;;9.90;1.42;;;11.30;99.90;;;;;;5027518;28;20036;-75
2022/03/17 10:40:35;;;;;;;5.45;1.30;;;12.00;99.90;;;;;;5012203;28;20435;-76
2022/03/17 10:43:22;;;;;;;2.90;0.90;;;12.40;99.90;;;;;;5026843;28;20064;-74
2022/03/17 10:46:15;;;;;;;5.22;1.25;;;12.60;99.90;;;;;;5016421;28;20421;-75
2022/03/17 10:48:55;;;;;;;5.90;1.17;;;12.40;99.90;;;;;;5007028;28;20025;-75
2022/03/17 10:51:39;;;;;;;10.68;1.20;;;12.50;99.90;;;;;;5018574;28;20472;-85
2022/03/17 10:54:15;;;;;;;3.00;1.10;;;12.60;99.90;;;;;;5018517;28;20029;-75
2022/03/17 10:56:42;;;;;;;7.40;1.55;;;11.90;99.90;;;;;;5018476;28;20037;-82
2022/03/17 10:59:08;;;;;;;2.50;1.15;;;11.60;99.90;;;;;;5018482;28;20073;-75
2022/03/17 11:01:39;;;;;;;2.22;0.95;;;11.60;99.90;;;;;;5035552;28;20111;-75
2022/03/17 11:04:06;;;;;;;3.15;1.15;;;11.90;99.90;;;;;;5019007;28;20044;-75
2022/03/17 11:06:33;;;;;;;4.50;1.17;;;11.70;99.90;;;;;;5035947;28;20029;-74
2022/03/17 11:09:01;;;;;;;3.75;0.80;;;11.50;99.90;;;;;;5035568;28;20025;-75
2022/03/17 11:11:28;;;;;;;7.15;1.73;;;11.70;99.90;;;;;;5035811;28;20400;-75
2022/03/17 11:13:56;;;;;;;9.18;1.60;;;12.20;99.90;;;;;;5035736;28;20416;-75
2022/03/17 11:16:29;;;;;;;10.27;1.40;;;12.50;99.90;;;;;;5035761;28;20048;-74
2022/03/17 11:18:56;;;;;;;8.60;1.70;;;12.20;99.90;;;;;;5035791;28;20371;-75
2022/03/17 11:21:28;;;;;;;;;;;12.40;99.90;;;;;;5035691;28;20435;-75
2022/03/17 11:24:05;;;;;;;3.50;1.10;;;12.60;99.90;;;;;;5017603;28;19920;-74
2022/03/17 11:26:35;;;;;;;6.30;1.73;;;12.50;99.90;;;;;;5018488;28;20033;-81
2022/03/17 11:29:10;;;;;;;3.10;1.02;;;12.30;99.90;;;;;;5035440;28;20021;-75
2022/03/17 11:31:59;;;;;;;3.60;1.10;;;12.00;99.90;;;;;;5035700;28;20026;-75
2022/03/17 11:34:42;;;;;;;8.57;1.58;;;12.40;99.90;;;;;;5035396;28;20025;-75
2022/03/17 11:37:26;;;;;;;3.75;1.17;;;12.10;99.90;;;;;;5035474;28;20029;-83
2022/03/17 11:40:04;;;;;;;5.22;1.30;;;12.20;99.90;;;;;;5035345;28;20034;-75
2022/03/17 11:42:57;;;;;;;4.22;0.90;;;12.60;99.90;;;;;;5017695;28;20037;-83
2022/03/17 11:45:23;;;;;;;5.80;1.75;;;12.90;99.90;;;;;;5035244;28;20040;-75
2022/03/17 11:47:49;;;;;;;5.57;1.73;;;11.30;99.90;;;;;;5034216;28;20125;-82
2022/03/17 11:50:32;;;;;;;6.07;1.20;;;11.00;99.90;;;;;;5017679;28;20025;-75
2022/03/17 11:52:59;;;;;;;4.13;1.50;;;11.60;99.90;;;;;;5035083;28;20356;-75
2022/03/17 11:55:35;;;;;;;7.13;1.30;;;12.20;99.90;;;;;;5001233;28;20332;-76
2022/03/17 11:58:34;;;;;;;9.57;1.50;;;12.40;99.90;;;;;;5034902;28;20152;-75
2022/03/17 12:01:23;;;;;;;5.80;1.42;;;11.80;99.90;;;;;;5017768;28;20068;-76
2022/03/17 12:04:04;;;;;;;4.38;1.75;;;11.40;99.90;;;;;;5001169;28;20495;-80
2022/03/17 12:06:31;;;;;;;4.55;1.95;;;11.20;99.90;;;;;;5017386;28;20057;-75
2022/03/17 12:09:10;;;;;;;4.43;1.08;;;11.90;99.90;;;;;;5035227;28;20022;-76
2022/03/17 12:11:49;;;;;;;4.03;1.75;;;12.20;99.90;;;;;;5034956;28;20025;-75
2022/03/17 12:14:23;;;;;;;8.25;1.27;;;12.00;99.90;;;;;;5034864;28;20028;-76
2022/03/17 12:16:51;;;;;;;5.10;1.40;;;11.70;99.90;;;;;;5034997;28;20057;-77
2022/03/17 12:19:37;;;;;;;13.60;2.08;;;11.90;99.90;;;;;;5035048;28;20033;-76
2022/03/17 12:22:05;;;;;;;3.97;1.40;;;12.00;99.90;;;;;;5017607;28;20108;-83
2022/03/17 12:24:53;;;;;;;6.65;1.00;;;12.10;99.90;;;;;;5017320;28;20053;-75
2022/03/17 12:27:30;;;;;;;6.57;1.35;;;11.40;99.90;;;;;;5034675;28;20033;-83
2022/03/17 12:30:01;;;;;;;5.07;1.65;;;11.30;99.90;;;;;;5017345;28;20092;-75
2022/03/17 12:32:30;;;;;;;1.58;0.70;;;11.90;99.90;;;;;;5034770;28;20025;-76
2022/03/17 12:34:58;;;;;;;5.80;0.98;;;12.30;99.90;;;;;;5017245;28;20302;-76
2022/03/17 12:37:32;;;;;;;18.98;2.33;;;12.10;99.90;;;;;;5035044;28;20056;-76
2022/03/17 12:40:11;;;;;;;9.32;2.03;;;12.10;99.90;;;;;;5016955;28;20026;-76
2022/03/17 12:42:45;;;;;;;5.20;1.05;;;11.80;99.90;;;;;;5017282;28;20064;-75
2022/03/17 12:45:14;;;;;;;3.40;0.90;;;12.20;99.90;;;;;;5034881;28;20026;-75
2022/03/17 12:47:46;;;;;;;7.00;0.95;;;12.50;99.90;;;;;;5034319;28;20033;-75
2022/03/17 12:50:18;;;;;;;5.75;1.00;;;12.70;99.90;;;;;;5017530;28;20333;-81
2022/03/17 12:52:46;;;;;;;7.30;1.58;;;12.60;99.90;;;;;;5034474;28;20026;-75
2022/03/17 12:55:18;;;;;;;12.65;1.45;;;12.60;99.90;;;;;;5034849;28;20025;-76
2022/03/17 12:57:44;;;;;;;5.22;1.33;;;12.50;99.90;;;;;;5016850;28;20040;-75
2022/03/17 13:00:15;;;;;;;7.97;0.93;;;12.60;99.90;;;;;;5037473;28;20033;-76
2022/03/17 13:02:55;;;;;;;8.60;1.10;;;12.20;99.90;;;;;;5020734;28;20044;-76
2022/03/17 13:08:08;;;;;;;12.37;1.60;;;12.00;99.90;;;;;;5037695;28;20470;-75
2022/03/17 13:16:06;;;;;;;;;;;12.80;99.90;;;;;;5038385;28;20048;-76